PRIVATE WETTERSTATION BILLIGHEIM-ALLFELD                       ZURCK
Wetterdaten: Dienstag, 28.06.2016
Datum Zeit Temp. A. Temp. A. min Temp. A. max Feuchte A. Luftdruck Regen Wind Richtung Richtung Sonnenschein ET Solar Taupunkt Windchill Windben Empfang
28.06.2016 00:00 15,8 C 15,8 C 15,9 C 85 % 1019,3 hPa 0,0 l/m 0,0 km/h (0 Bft) S-SO 157 0 min 0,025 mm 0 W/m 13,3 C 15,8 C 1,6 km/h (1 Bft) 100 %
28.06.2016 00:10 15,7 C 15,7 C 15,8 C 86 % 1019,3 hPa 0,0 l/m 0,0 km/h (0 Bft) N 0 0 min 0,000 mm 0 W/m 13,4 C 15,7 C 0,0 km/h (0 Bft) 100 %
28.06.2016 00:20 15,7 C 15,7 C 15,7 C 87 % 1019,3 hPa 0,0 l/m 0,0 km/h (0 Bft) S-SO 157 0 min 0,000 mm 0 W/m 13,5 C 15,7 C 1,6 km/h (1 Bft) 99 %
28.06.2016 00:30 15,9 C 15,7 C 15,9 C 86 % 1019,3 hPa 0,0 l/m 0,0 km/h (0 Bft) N 0 0 min 0,000 mm 0 W/m 13,6 C 15,9 C 0,0 km/h (0 Bft) 100 %
28.06.2016 00:40 15,9 C 15,9 C 15,9 C 86 % 1019,3 hPa 0,0 l/m 0,0 km/h (0 Bft) S-SO 157 0 min 0,000 mm 0 W/m 13,6 C 15,9 C 1,6 km/h (1 Bft) 99 %
28.06.2016 00:50 15,9 C 15,9 C 15,9 C 86 % 1019,1 hPa 0,0 l/m 1,6 km/h (1 Bft) S-SO 157 0 min 0,000 mm 0 W/m 13,6 C 15,9 C 4,8 km/h (1 Bft) 100 %
28.06.2016 01:00 15,8 C 15,8 C 15,9 C 86 % 1019,0 hPa 0,0 l/m 1,6 km/h (1 Bft) S-SO 157 0 min 0,000 mm 0 W/m 13,5 C 15,8 C 6,4 km/h (2 Bft) 100 %
28.06.2016 01:10 15,6 C 15,6 C 15,8 C 87 % 1019,1 hPa 0,0 l/m 3,2 km/h (1 Bft) SO 135 0 min 0,000 mm 0 W/m 13,4 C 15,6 C 8,0 km/h (2 Bft) 100 %
28.06.2016 01:20 15,6 C 15,6 C 15,7 C 87 % 1019,0 hPa 0,0 l/m 0,0 km/h (0 Bft) SO 135 0 min 0,000 mm 0 W/m 13,4 C 15,6 C 4,8 km/h (1 Bft) 100 %
28.06.2016 01:30 15,6 C 15,6 C 15,6 C 87 % 1019,0 hPa 0,0 l/m 1,6 km/h (1 Bft) SO 135 0 min 0,000 mm 0 W/m 13,4 C 15,6 C 6,4 km/h (2 Bft) 100 %
28.06.2016 01:40 15,5 C 15,4 C 15,6 C 87 % 1019,0 hPa 0,0 l/m 0,0 km/h (0 Bft) SO 135 0 min 0,000 mm 0 W/m 13,3 C 15,5 C 1,6 km/h (1 Bft) 100 %
28.06.2016 01:50 15,4 C 15,4 C 15,5 C 87 % 1018,9 hPa 0,0 l/m 0,0 km/h (0 Bft) SO 135 0 min 0,000 mm 0 W/m 13,2 C 15,4 C 6,4 km/h (2 Bft) 100 %
28.06.2016 02:00 15,3 C 15,3 C 15,4 C 88 % 1018,9 hPa 0,0 l/m 4,8 km/h (1 Bft) SO 135 0 min 0,000 mm 0 W/m 13,3 C 15,3 C 8,0 km/h (2 Bft) 100 %
28.06.2016 02:10 15,4 C 15,3 C 15,4 C 88 % 1018,7 hPa 0,0 l/m 1,6 km/h (1 Bft) SO 135 0 min 0,000 mm 0 W/m 13,4 C 15,4 C 6,4 km/h (2 Bft) 100 %
28.06.2016 02:20 15,4 C 15,3 C 15,4 C 88 % 1018,8 hPa 0,0 l/m 0,0 km/h (0 Bft) N 0 0 min 0,000 mm 0 W/m 13,4 C 15,4 C 0,0 km/h (0 Bft) 100 %
28.06.2016 02:30 15,3 C 15,3 C 15,4 C 88 % 1018,6 hPa 0,0 l/m 0,0 km/h (0 Bft) S-SO 157 0 min 0,000 mm 0 W/m 13,3 C 15,3 C 1,6 km/h (1 Bft) 100 %
28.06.2016 02:40 15,2 C 15,2 C 15,3 C 88 % 1018,5 hPa 0,0 l/m 1,6 km/h (1 Bft) S-SO 157 0 min 0,000 mm 0 W/m 13,2 C 15,2 C 6,4 km/h (2 Bft) 99 %
28.06.2016 02:50 15,2 C 15,2 C 15,3 C 88 % 1018,6 hPa 0,0 l/m 0,0 km/h (0 Bft) S-SO 157 0 min 0,000 mm 0 W/m 13,2 C 15,2 C 1,6 km/h (1 Bft) 89 %
28.06.2016 03:00 15,1 C 15,1 C 15,2 C 89 % 1018,6 hPa 0,0 l/m 0,0 km/h (0 Bft) S-SO 157 0 min 0,000 mm 0 W/m 13,3 C 15,1 C 1,6 km/h (1 Bft) 100 %
28.06.2016 03:10 15,1 C 15,1 C 15,1 C 89 % 1018,6 hPa 0,0 l/m 0,0 km/h (0 Bft) N 0 0 min 0,000 mm 0 W/m 13,3 C 15,1 C 0,0 km/h (0 Bft) 100 %
28.06.2016 03:20 15,1 C 15,1 C 15,1 C 89 % 1018,6 hPa 0,0 l/m 0,0 km/h (0 Bft) S-SO 157 0 min 0,000 mm 0 W/m 13,3 C 15,1 C 1,6 km/h (1 Bft) 100 %
28.06.2016 03:30 15,1 C 15,1 C 15,1 C 89 % 1018,5 hPa 0,0 l/m 0,0 km/h (0 Bft) N 0 0 min 0,000 mm 0 W/m 13,3 C 15,1 C 0,0 km/h (0 Bft) 100 %
28.06.2016 03:40 15,1 C 15,1 C 15,1 C 89 % 1018,4 hPa 0,0 l/m 1,6 km/h (1 Bft) S-SW 202 0 min 0,000 mm 0 W/m 13,3 C 15,1 C 9,7 km/h (2 Bft) 100 %
28.06.2016 03:50 15,2 C 15,1 C 15,2 C 89 % 1018,2 hPa 0,0 l/m 1,6 km/h (1 Bft) SW 225 0 min 0,000 mm 0 W/m 13,4 C 15,2 C 8,0 km/h (2 Bft) 100 %
28.06.2016 04:00 15,1 C 15,1 C 15,2 C 89 % 1018,0 hPa 0,0 l/m 0,0 km/h (0 Bft) N 0 0 min 0,000 mm 0 W/m 13,3 C 15,1 C 0,0 km/h (0 Bft) 100 %
28.06.2016 04:10 15,1 C 15,1 C 15,1 C 89 % 1018,1 hPa 0,0 l/m 0,0 km/h (0 Bft) SW 225 0 min 0,000 mm 0 W/m 13,3 C 15,1 C 3,2 km/h (1 Bft) 100 %
28.06.2016 04:20 14,8 C 14,8 C 15,1 C 90 % 1017,9 hPa 0,0 l/m 1,6 km/h (1 Bft) SW 225 0 min 0,000 mm 0 W/m 13,2 C 14,8 C 4,8 km/h (1 Bft) 100 %
28.06.2016 04:30 14,8 C 14,8 C 14,8 C 90 % 1018,0 hPa 0,0 l/m 0,0 km/h (0 Bft) S-SW 202 0 min 0,000 mm 0 W/m 13,2 C 14,8 C 4,8 km/h (1 Bft) 100 %
28.06.2016 04:40 14,8 C 14,8 C 14,8 C 90 % 1017,9 hPa 0,0 l/m 0,0 km/h (0 Bft) S-SW 202 0 min 0,000 mm 0 W/m 13,2 C 14,8 C 1,6 km/h (1 Bft) 100 %
28.06.2016 04:50 14,9 C 14,8 C 14,9 C 90 % 1017,9 hPa 0,0 l/m 4,8 km/h (1 Bft) SO 135 0 min 0,000 mm 0 W/m 13,3 C 14,9 C 6,4 km/h (2 Bft) 100 %
28.06.2016 05:00 15,1 C 14,9 C 15,1 C 90 % 1017,9 hPa 0,0 l/m 4,8 km/h (1 Bft) SO 135 0 min 0,000 mm 0 W/m 13,5 C 15,1 C 8,0 km/h (2 Bft) 99 %
28.06.2016 05:10 14,9 C 14,9 C 15,1 C 90 % 1017,8 hPa 0,0 l/m 1,6 km/h (1 Bft) S-SO 157 0 min 0,000 mm 0 W/m 13,3 C 14,9 C 9,7 km/h (2 Bft) 100 %
28.06.2016 05:20 14,8 C 14,8 C 14,9 C 90 % 1017,9 hPa 0,0 l/m 0,0 km/h (0 Bft) S-SO 157 0 min 0,000 mm 0 W/m 13,2 C 14,8 C 4,8 km/h (1 Bft) 100 %
28.06.2016 05:30 14,8 C 14,8 C 14,8 C 90 % 1018,1 hPa 0,0 l/m 0,0 km/h (0 Bft) N 0 0 min 0,000 mm 0 W/m 13,2 C 14,8 C 0,0 km/h (0 Bft) 100 %
28.06.2016 05:40 14,8 C 14,8 C 14,8 C 90 % 1018,0 hPa 0,0 l/m 0,0 km/h (0 Bft) N 0 0 min 0,000 mm 11 W/m 13,2 C 14,8 C 0,0 km/h (0 Bft) 100 %
28.06.2016 05:50 14,8 C 14,8 C 14,8 C 90 % 1018,2 hPa 0,0 l/m 0,0 km/h (0 Bft) N 0 0 min 0,000 mm 16 W/m 13,2 C 14,8 C 0,0 km/h (0 Bft) 100 %
28.06.2016 06:00 14,8 C 14,8 C 14,9 C 90 % 1018,3 hPa 0,0 l/m 0,0 km/h (0 Bft) N 0 0 min 0,000 mm 16 W/m 13,2 C 14,8 C 0,0 km/h (0 Bft) 100 %
28.06.2016 06:10 15,0 C 14,8 C 15,0 C 90 % 1018,4 hPa 0,0 l/m 0,0 km/h (0 Bft) N 0 0 min 0,000 mm 28 W/m 13,4 C 15,0 C 0,0 km/h (0 Bft) 100 %
28.06.2016 06:20 15,1 C 14,9 C 15,1 C 90 % 1018,5 hPa 0,0 l/m 0,0 km/h (0 Bft) N 0 0 min 0,000 mm 30 W/m 13,5 C 15,1 C 0,0 km/h (0 Bft) 100 %
28.06.2016 06:30 14,9 C 14,9 C 15,1 C 90 % 1018,3 hPa 0,0 l/m 0,0 km/h (0 Bft) N 0 0 min 0,000 mm 21 W/m 13,3 C 14,9 C 0,0 km/h (0 Bft) 100 %
28.06.2016 06:40 14,9 C 14,9 C 15,0 C 90 % 1018,3 hPa 0,0 l/m 0,0 km/h (0 Bft) N 0 0 min 0,000 mm 26 W/m 13,3 C 14,9 C 0,0 km/h (0 Bft) 100 %
28.06.2016 06:50 14,7 C 14,7 C 14,9 C 90 % 1018,4 hPa 0,0 l/m 0,0 km/h (0 Bft) S-SO 157 0 min 0,000 mm 30 W/m 13,1 C 14,7 C 1,6 km/h (1 Bft) 100 %
28.06.2016 07:00 14,8 C 14,7 C 14,8 C 90 % 1018,2 hPa 0,0 l/m 1,6 km/h (1 Bft) S-SO 157 0 min 0,025 mm 30 W/m 13,2 C 14,8 C 4,8 km/h (1 Bft) 100 %
28.06.2016 07:10 14,8 C 14,7 C 14,8 C 90 % 1018,1 hPa 0,0 l/m 0,0 km/h (0 Bft) S-SO 157 0 min 0,000 mm 32 W/m 13,2 C 14,8 C 1,6 km/h (1 Bft) 100 %
28.06.2016 07:20 15,0 C 14,9 C 15,0 C 90 % 1018,0 hPa 0,0 l/m 0,0 km/h (0 Bft) N 0 0 min 0,000 mm 35 W/m 13,4 C 15,0 C 0,0 km/h (0 Bft) 99 %
28.06.2016 07:30 15,1 C 15,0 C 15,1 C 90 % 1018,0 hPa 0,0 l/m 0,0 km/h (0 Bft) S-SO 157 0 min 0,000 mm 44 W/m 13,5 C 15,1 C 1,6 km/h (1 Bft) 100 %
28.06.2016 07:40 15,2 C 15,1 C 15,2 C 90 % 1017,9 hPa 0,0 l/m 0,0 km/h (0 Bft) SW 225 0 min 0,000 mm 65 W/m 13,6 C 15,2 C 6,4 km/h (2 Bft) 100 %
28.06.2016 07:50 15,4 C 15,2 C 15,4 C 90 % 1017,9 hPa 0,0 l/m 0,0 km/h (0 Bft) N 0 0 min 0,000 mm 120 W/m 13,8 C 15,4 C 0,0 km/h (0 Bft) 99 %
28.06.2016 08:00 15,8 C 15,4 C 15,8 C 90 % 1018,0 hPa 0,0 l/m 0,0 km/h (0 Bft) N 0 10 min 0,025 mm 156 W/m 14,2 C 15,8 C 0,0 km/h (0 Bft) 87 %
28.06.2016 08:10 16,3 C 15,8 C 16,3 C 90 % 1017,9 hPa 0,0 l/m 0,0 km/h (0 Bft) N 0 10 min 0,000 mm 174 W/m 14,7 C 16,3 C 0,0 km/h (0 Bft) 99 %
28.06.2016 08:20 16,6 C 16,3 C 16,6 C 89 % 1017,9 hPa 0,0 l/m 0,0 km/h (0 Bft) W-SW 247 10 min 0,000 mm 181 W/m 14,8 C 16,6 C 4,8 km/h (1 Bft) 98 %
28.06.2016 08:30 16,8 C 16,6 C 16,8 C 88 % 1017,9 hPa 0,0 l/m 0,0 km/h (0 Bft) W-SW 247 10 min 0,000 mm 181 W/m 14,8 C 16,8 C 4,8 km/h (1 Bft) 97 %
28.06.2016 08:40 17,2 C 16,8 C 17,2 C 88 % 1017,8 hPa 0,0 l/m 1,6 km/h (1 Bft) W-SW 247 10 min 0,000 mm 218 W/m 15,2 C 17,2 C 4,8 km/h (1 Bft) 97 %
28.06.2016 08:50 17,5 C 17,2 C 17,5 C 87 % 1017,8 hPa 0,0 l/m 1,6 km/h (1 Bft) W-SW 247 10 min 0,000 mm 258 W/m 15,3 C 17,5 C 6,4 km/h (2 Bft) 98 %
28.06.2016 09:00 17,7 C 17,5 C 17,7 C 85 % 1017,8 hPa 0,0 l/m 1,6 km/h (1 Bft) W-SW 247 10 min 0,102 mm 285 W/m 15,1 C 17,7 C 6,4 km/h (2 Bft) 98 %
28.06.2016 09:10 18,1 C 17,7 C 18,1 C 86 % 1017,8 hPa 0,0 l/m 0,0 km/h (0 Bft) SW 225 10 min 0,000 mm 455 W/m 15,7 C 18,1 C 8,0 km/h (2 Bft) 96 %
28.06.2016 09:20 18,2 C 18,1 C 18,2 C 85 % 1017,8 hPa 0,0 l/m 3,2 km/h (1 Bft) S 180 10 min 0,000 mm 353 W/m 15,6 C 18,2 C 14,5 km/h (3 Bft) 98 %
28.06.2016 09:30 18,0 C 18,0 C 18,2 C 86 % 1017,8 hPa 0,0 l/m 4,8 km/h (1 Bft) S-SW 202 10 min 0,000 mm 153 W/m 15,6 C 18,0 C 8,0 km/h (2 Bft) 97 %
28.06.2016 09:40 17,9 C 17,9 C 18,0 C 86 % 1017,9 hPa 0,0 l/m 3,2 km/h (1 Bft) S-SW 202 0 min 0,000 mm 132 W/m 15,5 C 17,9 C 8,0 km/h (2 Bft) 98 %
28.06.2016 09:50 17,9 C 17,8 C 17,9 C 87 % 1017,8 hPa 0,0 l/m 1,6 km/h (1 Bft) S-SW 202 10 min 0,000 mm 265 W/m 15,7 C 17,9 C 8,0 km/h (2 Bft) 97 %
28.06.2016 10:00 18,0 C 17,9 C 18,0 C 87 % 1017,8 hPa 0,0 l/m 0,0 km/h (0 Bft) S-SO 157 10 min 0,127 mm 283 W/m 15,8 C 18,0 C 6,4 km/h (2 Bft) 98 %
28.06.2016 10:10 17,9 C 17,9 C 18,0 C 86 % 1017,8 hPa 0,0 l/m 4,8 km/h (1 Bft) S-SW 202 0 min 0,000 mm 146 W/m 15,5 C 17,9 C 11,3 km/h (2 Bft) 97 %
28.06.2016 10:20 18,0 C 17,9 C 18,0 C 87 % 1017,7 hPa 0,0 l/m 4,8 km/h (1 Bft) SW 225 10 min 0,000 mm 241 W/m 15,8 C 18,0 C 9,7 km/h (2 Bft) 97 %
28.06.2016 10:30 17,9 C 17,9 C 18,0 C 87 % 1017,6 hPa 0,0 l/m 3,2 km/h (1 Bft) S 180 10 min 0,000 mm 297 W/m 15,7 C 17,9 C 9,7 km/h (2 Bft) 98 %
28.06.2016 10:40 18,3 C 17,9 C 18,3 C 85 % 1017,5 hPa 0,0 l/m 6,4 km/h (2 Bft) SW 225 10 min 0,000 mm 454 W/m 15,7 C 18,3 C 11,3 km/h (2 Bft) 97 %
28.06.2016 10:50 19,2 C 18,3 C 19,2 C 85 % 1017,6 hPa 0,0 l/m 1,6 km/h (1 Bft) SW 225 10 min 0,000 mm 693 W/m 16,6 C 19,2 C 9,7 km/h (2 Bft) 98 %
28.06.2016 11:00 19,5 C 19,2 C 19,5 C 82 % 1017,5 hPa 0,0 l/m 4,8 km/h (1 Bft) S 180 10 min 0,178 mm 621 W/m 16,3 C 19,5 C 11,3 km/h (2 Bft) 98 %
28.06.2016 11:10 19,4 C 19,4 C 19,7 C 80 % 1017,2 hPa 0,0 l/m 8,0 km/h (2 Bft) S-SO 157 10 min 0,000 mm 471 W/m 15,9 C 18,7 C 19,3 km/h (3 Bft) 97 %
28.06.2016 11:20 19,9 C 19,4 C 19,9 C 79 % 1017,4 hPa 0,0 l/m 6,4 km/h (2 Bft) S 180 10 min 0,000 mm 860 W/m 16,1 C 19,9 C 17,7 km/h (3 Bft) 98 %
28.06.2016 11:30 20,0 C 19,9 C 20,1 C 80 % 1017,4 hPa 0,0 l/m 3,2 km/h (1 Bft) S-SW 202 10 min 0,000 mm 445 W/m 16,4 C 20,0 C 14,5 km/h (3 Bft) 97 %
28.06.2016 11:40 20,1 C 20,0 C 20,1 C 79 % 1017,5 hPa 0,0 l/m 4,8 km/h (1 Bft) S-SW 202 10 min 0,000 mm 436 W/m 16,3 C 20,1 C 16,1 km/h (3 Bft) 98 %
28.06.2016 11:50 19,8 C 19,8 C 20,1 C 79 % 1017,5 hPa 0,0 l/m 4,8 km/h (1 Bft) S-SW 202 10 min 0,000 mm 239 W/m 16,0 C 19,8 C 14,5 km/h (3 Bft) 98 %
28.06.2016 12:00 19,6 C 19,6 C 19,8 C 80 % 1017,2 hPa 0,0 l/m 4,8 km/h (1 Bft) W-SW 247 10 min 0,203 mm 232 W/m 16,1 C 19,6 C 14,5 km/h (3 Bft) 97 %
28.06.2016 12:10 19,7 C 19,6 C 19,7 C 82 % 1017,1 hPa 0,0 l/m 1,6 km/h (1 Bft) SW 225 10 min 0,000 mm 434 W/m 16,5 C 19,7 C 8,0 km/h (2 Bft) 98 %
28.06.2016 12:20 20,3 C 19,7 C 20,3 C 77 % 1017,1 hPa 0,0 l/m 4,8 km/h (1 Bft) W-SW 247 10 min 0,000 mm 570 W/m 16,1 C 20,3 C 17,7 km/h (3 Bft) 97 %
28.06.2016 12:30 20,4 C 20,3 C 20,4 C 76 % 1017,1 hPa 0,0 l/m 6,4 km/h (2 Bft) S-SW 202 10 min 0,000 mm 404 W/m 16,0 C 20,4 C 17,7 km/h (3 Bft) 97 %
28.06.2016 12:40 20,6 C 20,4 C 20,6 C 76 % 1017,1 hPa 0,0 l/m 8,0 km/h (2 Bft) SW 225 10 min 0,000 mm 461 W/m 16,2 C 20,0 C 20,9 km/h (4 Bft) 97 %
28.06.2016 12:50 20,5 C 20,5 C 20,6 C 77 % 1017,0 hPa 0,0 l/m 11,3 km/h (2 Bft) S-SW 202 10 min 0,000 mm 378 W/m 16,3 C 18,8 C 24,1 km/h (4 Bft) 98 %
28.06.2016 13:00 20,6 C 20,5 C 20,6 C 76 % 1017,0 hPa 0,0 l/m 8,0 km/h (2 Bft) W-SW 247 10 min 0,229 mm 388 W/m 16,2 C 20,0 C 16,1 km/h (3 Bft) 98 %
28.06.2016 13:10 20,8 C 20,6 C 20,8 C 77 % 1016,8 hPa 0,0 l/m 3,2 km/h (1 Bft) W-SW 247 10 min 0,000 mm 343 W/m 16,6 C 20,8 C 11,3 km/h (2 Bft) 97 %
28.06.2016 13:20 20,7 C 20,7 C 20,8 C 75 % 1016,7 hPa 0,0 l/m 6,4 km/h (2 Bft) W 270 10 min 0,000 mm 258 W/m 16,1 C 20,7 C 17,7 km/h (3 Bft) 98 %
28.06.2016 13:30 20,4 C 20,4 C 20,7 C 76 % 1016,9 hPa 0,0 l/m 4,8 km/h (1 Bft) W 270 10 min 0,000 mm 202 W/m 16,0 C 20,4 C 11,3 km/h (2 Bft) 97 %
28.06.2016 13:40 20,0 C 20,0 C 20,4 C 81 % 1016,9 hPa 0,0 l/m 12,9 km/h (3 Bft) NW 315 10 min 0,000 mm 376 W/m 16,6 C 17,8 C 25,7 km/h (4 Bft) 98 %
28.06.2016 13:50 19,9 C 19,9 C 20,0 C 84 % 1016,9 hPa 0,0 l/m 9,7 km/h (2 Bft) NW 315 10 min 0,000 mm 512 W/m 17,1 C 18,6 C 17,7 km/h (3 Bft) 97 %
28.06.2016 14:00 20,0 C 19,9 C 20,0 C 83 % 1016,8 hPa 0,0 l/m 9,7 km/h (2 Bft) NW 315 10 min 0,178 mm 468 W/m 17,0 C 18,7 C 17,7 km/h (3 Bft) 98 %
28.06.2016 14:10 19,9 C 19,9 C 20,0 C 83 % 1016,8 hPa 0,0 l/m 6,4 km/h (2 Bft) NW 315 10 min 0,000 mm 288 W/m 16,9 C 19,9 C 14,5 km/h (3 Bft) 98 %
28.06.2016 14:20 20,0 C 19,9 C 20,0 C 83 % 1016,6 hPa 0,0 l/m 8,0 km/h (2 Bft) NW 315 10 min 0,000 mm 489 W/m 17,0 C 19,4 C 16,1 km/h (3 Bft) 97 %
28.06.2016 14:30 20,2 C 20,0 C 20,2 C 82 % 1016,6 hPa 0,0 l/m 6,4 km/h (2 Bft) NW 315 10 min 0,000 mm 425 W/m 17,0 C 20,2 C 16,1 km/h (3 Bft) 97 %
28.06.2016 14:40 20,3 C 20,2 C 20,3 C 81 % 1016,5 hPa 0,0 l/m 9,7 km/h (2 Bft) NW 315 10 min 0,000 mm 497 W/m 16,9 C 19,1 C 19,3 km/h (3 Bft) 97 %
28.06.2016 14:50 20,2 C 20,2 C 20,4 C 81 % 1016,4 hPa 0,0 l/m 6,4 km/h (2 Bft) NW 315 10 min 0,000 mm 357 W/m 16,8 C 20,2 C 16,1 km/h (3 Bft) 98 %
28.06.2016 15:00 19,8 C 19,8 C 20,2 C 82 % 1016,3 hPa 0,0 l/m 4,8 km/h (1 Bft) NW 315 10 min 0,203 mm 220 W/m 16,6 C 19,8 C 16,1 km/h (3 Bft) 96 %
28.06.2016 15:10 19,6 C 19,6 C 19,8 C 83 % 1016,0 hPa 0,0 l/m 4,8 km/h (1 Bft) NW 315 10 min 0,000 mm 316 W/m 16,6 C 19,6 C 12,9 km/h (3 Bft) 98 %
28.06.2016 15:20 19,8 C 19,6 C 19,8 C 83 % 1016,0 hPa 0,0 l/m 3,2 km/h (1 Bft) NW 315 10 min 0,000 mm 343 W/m 16,8 C 19,8 C 9,7 km/h (2 Bft) 98 %
28.06.2016 15:30 19,9 C 19,8 C 19,9 C 82 % 1015,8 hPa 0,0 l/m 0,0 km/h (0 Bft) N-NW 337 10 min 0,000 mm 320 W/m 16,7 C 19,9 C 4,8 km/h (1 Bft) 98 %
28.06.2016 15:40 19,8 C 19,8 C 19,9 C 82 % 1015,8 hPa 0,0 l/m 0,0 km/h (0 Bft) N-NW 337 10 min 0,000 mm 267 W/m 16,6 C 19,8 C 1,6 km/h (1 Bft) 97 %
28.06.2016 15:50 19,8 C 19,8 C 19,8 C 82 % 1015,8 hPa 0,0 l/m 3,2 km/h (1 Bft) NW 315 10 min 0,000 mm 221 W/m 16,6 C 19,8 C 12,9 km/h (3 Bft) 97 %
28.06.2016 16:00 19,9 C 19,8 C 19,9 C 80 % 1015,7 hPa 0,0 l/m 4,8 km/h (1 Bft) W-NW 292 10 min 0,152 mm 260 W/m 16,3 C 19,9 C 11,3 km/h (2 Bft) 98 %
28.06.2016 16:10 20,0 C 19,8 C 20,0 C 79 % 1015,7 hPa 0,0 l/m 1,6 km/h (1 Bft) W 270 10 min 0,000 mm 272 W/m 16,2 C 20,0 C 8,0 km/h (2 Bft) 97 %
28.06.2016 16:20 20,1 C 20,0 C 20,1 C 78 % 1015,7 hPa 0,0 l/m 1,6 km/h (1 Bft) W-SW 247 10 min 0,000 mm 285 W/m 16,1 C 20,1 C 9,7 km/h (2 Bft) 97 %
28.06.2016 16:40 20,0 C 20,0 C 20,2 C 76 % 1015,7 hPa 0,0 l/m 5,5 km/h (1 Bft) W-NW 288 0 min 0,000 mm 144 W/m 15,6 C 20,0 C 12,9 km/h (3 Bft) 100 %
28.06.2016 16:50 19,7 C 19,7 C 20,0 C 79 % 1015,6 hPa 0,0 l/m 3,2 km/h (1 Bft) NW 306 10 min 0,000 mm 204 W/m 16,0 C 19,7 C 9,7 km/h (2 Bft) 100 %
28.06.2016 17:00 19,6 C 19,6 C 19,7 C 81 % 1015,5 hPa 0,0 l/m 1,5 km/h (1 Bft) NW 309 0 min 0,102 mm 100 W/m 16,2 C 19,6 C 8,0 km/h (2 Bft) 100 %
28.06.2016 17:10 19,6 C 19,6 C 19,6 C 81 % 1015,4 hPa 0,0 l/m 0,0 km/h (0 Bft) NW 309 10 min 0,000 mm 185 W/m 16,2 C 19,6 C 1,6 km/h (1 Bft) 100 %
28.06.2016 17:20 19,6 C 19,6 C 19,6 C 82 % 1015,3 hPa 0,0 l/m 0,4 km/h (0 Bft) NW 309 10 min 0,000 mm 183 W/m 16,4 C 19,6 C 6,4 km/h (2 Bft) 100 %
28.06.2016 17:30 19,6 C 19,6 C 19,7 C 80 % 1015,2 hPa 0,0 l/m 0,0 km/h (0 Bft) NW 309 10 min 0,000 mm 160 W/m 16,1 C 19,6 C 1,6 km/h (1 Bft) 100 %
28.06.2016 17:40 19,6 C 19,6 C 19,6 C 82 % 1015,1 hPa 0,0 l/m 2,2 km/h (1 Bft) NW 321 10 min 0,000 mm 153 W/m 16,4 C 19,6 C 8,0 km/h (2 Bft) 100 %
28.06.2016 17:50 19,4 C 19,4 C 19,6 C 82 % 1015,1 hPa 0,0 l/m 0,0 km/h (0 Bft) NW 321 10 min 0,000 mm 195 W/m 16,2 C 19,4 C 1,6 km/h (1 Bft) 100 %
28.06.2016 18:00 19,6 C 19,4 C 19,6 C 83 % 1014,9 hPa 0,0 l/m 0,0 km/h (0 Bft) NW 321 10 min 0,102 mm 234 W/m 16,6 C 19,6 C 0,0 km/h (0 Bft) 100 %
28.06.2016 18:10 19,8 C 19,6 C 19,8 C 82 % 1014,8 hPa 0,0 l/m 0,4 km/h (0 Bft) NW 320 10 min 0,000 mm 246 W/m 16,6 C 19,8 C 4,8 km/h (1 Bft) 100 %
28.06.2016 18:20 20,1 C 19,8 C 20,1 C 78 % 1014,6 hPa 0,0 l/m 0,5 km/h (0 Bft) NW 306 10 min 0,000 mm 204 W/m 16,1 C 20,1 C 3,2 km/h (1 Bft) 100 %
28.06.2016 18:30 20,2 C 20,1 C 20,2 C 79 % 1014,5 hPa 0,0 l/m 0,5 km/h (0 Bft) W-NW 302 10 min 0,000 mm 167 W/m 16,4 C 20,2 C 4,8 km/h (1 Bft) 100 %
28.06.2016 18:40 20,3 C 20,2 C 20,3 C 79 % 1014,6 hPa 0,0 l/m 1,5 km/h (1 Bft) NW 304 0 min 0,000 mm 125 W/m 16,5 C 20,3 C 4,8 km/h (1 Bft) 100 %
28.06.2016 18:50 20,2 C 20,2 C 20,3 C 81 % 1014,6 hPa 0,0 l/m 1,5 km/h (1 Bft) NW 304 0 min 0,000 mm 132 W/m 16,8 C 20,2 C 4,8 km/h (1 Bft) 100 %
28.06.2016 19:00 19,9 C 19,9 C 20,2 C 79 % 1014,5 hPa 0,0 l/m 0,1 km/h (0 Bft) NW 304 10 min 0,102 mm 153 W/m 16,1 C 19,9 C 3,2 km/h (1 Bft) 100 %
28.06.2016 19:10 19,9 C 19,9 C 20,0 C 80 % 1014,4 hPa 0,0 l/m 0,0 km/h (0 Bft) NW 304 0 min 0,000 mm 132 W/m 16,3 C 19,9 C 1,6 km/h (1 Bft) 100 %
28.06.2016 19:20 19,9 C 19,9 C 19,9 C 82 % 1014,4 hPa 0,0 l/m 0,0 km/h (0 Bft) NW 304 0 min 0,000 mm 113 W/m 16,7 C 19,9 C 1,6 km/h (1 Bft) 100 %
28.06.2016 19:30 19,8 C 19,8 C 19,9 C 82 % 1014,4 hPa 0,0 l/m 0,0 km/h (0 Bft) NW 304 0 min 0,000 mm 120 W/m 16,6 C 19,8 C 0,0 km/h (0 Bft) 100 %
28.06.2016 19:40 19,8 C 19,8 C 19,9 C 82 % 1014,1 hPa 0,0 l/m 0,0 km/h (0 Bft) NW 304 0 min 0,000 mm 90 W/m 16,6 C 19,8 C 0,0 km/h (0 Bft) 100 %
28.06.2016 19:50 19,7 C 19,7 C 19,8 C 82 % 1014,1 hPa 0,0 l/m 0,0 km/h (0 Bft) NW 304 0 min 0,000 mm 54 W/m 16,5 C 19,7 C 0,0 km/h (0 Bft) 100 %
28.06.2016 20:00 19,5 C 19,5 C 19,7 C 84 % 1014,0 hPa 0,0 l/m 0,0 km/h (0 Bft) NW 304 0 min 0,050 mm 39 W/m 16,7 C 19,5 C 0,0 km/h (0 Bft) 100 %
28.06.2016 20:10 19,3 C 19,3 C 19,5 C 85 % 1014,1 hPa 0,0 l/m 0,0 km/h (0 Bft) N-NO 16 0 min 0,000 mm 33 W/m 16,7 C 19,3 C 1,6 km/h (1 Bft) 100 %
28.06.2016 20:20 19,2 C 19,2 C 19,4 C 86 % 1014,2 hPa 0,0 l/m 0,0 km/h (0 Bft) N-NO 16 0 min 0,000 mm 19 W/m 16,8 C 19,2 C 1,6 km/h (1 Bft) 100 %
28.06.2016 20:30 18,9 C 18,9 C 19,2 C 86 % 1014,2 hPa 0,0 l/m 0,0 km/h (0 Bft) N-NO 16 0 min 0,000 mm 0 W/m 16,5 C 18,9 C 0,0 km/h (0 Bft) 100 %
28.06.2016 20:40 18,7 C 18,7 C 18,9 C 87 % 1014,1 hPa 0,0 l/m 0,4 km/h (0 Bft) N-NO 16 0 min 0,000 mm 0 W/m 16,5 C 18,7 C 3,2 km/h (1 Bft) 100 %
28.06.2016 20:50 18,4 C 18,4 C 18,7 C 88 % 1014,1 hPa 0,0 l/m 2,1 km/h (1 Bft) N-NO 24 0 min 0,000 mm 0 W/m 16,4 C 18,4 C 3,2 km/h (1 Bft) 100 %
28.06.2016 21:00 18,3 C 18,3 C 18,4 C 89 % 1014,0 hPa 0,0 l/m 0,4 km/h (0 Bft) N-NO 24 0 min 0,000 mm 0 W/m 16,5 C 18,3 C 3,2 km/h (1 Bft) 100 %
28.06.2016 21:10 18,2 C 18,2 C 18,3 C 89 % 1013,9 hPa 0,0 l/m 0,0 km/h (0 Bft) N-NO 22 0 min 0,000 mm 0 W/m 16,4 C 18,2 C 3,2 km/h (1 Bft) 97 %
28.06.2016 21:20 18,1 C 18,1 C 18,2 C 89 % 1013,9 hPa 0,0 l/m 0,0 km/h (0 Bft) NO 45 0 min 0,000 mm 0 W/m 16,3 C 18,1 C 3,2 km/h (1 Bft) 97 %
28.06.2016 21:30 18,0 C 18,0 C 18,1 C 89 % 1014,0 hPa 0,0 l/m 0,0 km/h (0 Bft) SO 135 0 min 0,000 mm 0 W/m 16,2 C 18,0 C 4,8 km/h (1 Bft) 98 %
28.06.2016 21:40 17,9 C 17,9 C 18,0 C 89 % 1013,8 hPa 0,0 l/m 0,0 km/h (0 Bft) SO 135 0 min 0,000 mm 0 W/m 16,1 C 17,9 C 3,2 km/h (1 Bft) 97 %
28.06.2016 21:50 17,8 C 17,8 C 17,9 C 89 % 1013,9 hPa 0,0 l/m 0,0 km/h (0 Bft) N 0 0 min 0,000 mm 0 W/m 16,0 C 17,8 C 0,0 km/h (0 Bft) 98 %
28.06.2016 22:00 17,6 C 17,6 C 17,8 C 90 % 1014,0 hPa 0,0 l/m 0,0 km/h (0 Bft) SO 135 0 min 0,000 mm 0 W/m 15,9 C 17,6 C 4,8 km/h (1 Bft) 97 %
28.06.2016 22:10 17,6 C 17,6 C 17,6 C 90 % 1013,9 hPa 0,0 l/m 0,0 km/h (0 Bft) SO 135 0 min 0,000 mm 0 W/m 15,9 C 17,6 C 4,8 km/h (1 Bft) 98 %
28.06.2016 22:20 17,5 C 17,5 C 17,6 C 89 % 1013,7 hPa 0,0 l/m 0,0 km/h (0 Bft) SO 135 0 min 0,000 mm 0 W/m 15,7 C 17,5 C 1,6 km/h (1 Bft) 98 %
28.06.2016 22:30 17,4 C 17,4 C 17,5 C 90 % 1013,8 hPa 0,0 l/m 0,0 km/h (0 Bft) N 0 0 min 0,000 mm 0 W/m 15,7 C 17,4 C 0,0 km/h (0 Bft) 97 %
28.06.2016 22:40 17,3 C 17,3 C 17,4 C 90 % 1013,7 hPa 0,0 l/m 0,0 km/h (0 Bft) SO 135 0 min 0,000 mm 0 W/m 15,6 C 17,3 C 1,6 km/h (1 Bft) 98 %
28.06.2016 22:50 17,2 C 17,2 C 17,3 C 90 % 1013,5 hPa 0,0 l/m 1,6 km/h (1 Bft) SO 135 0 min 0,000 mm 0 W/m 15,5 C 17,2 C 6,4 km/h (2 Bft) 98 %
28.06.2016 23:00 17,2 C 17,2 C 17,2 C 90 % 1013,5 hPa 0,0 l/m 0,0 km/h (0 Bft) N 0 0 min 0,000 mm 0 W/m 15,5 C 17,2 C 0,0 km/h (0 Bft) 98 %
28.06.2016 23:10 17,1 C 17,1 C 17,2 C 90 % 1013,7 hPa 0,8 l/m 1,6 km/h (1 Bft) SO 135 0 min 0,000 mm 0 W/m 15,4 C 17,1 C 4,8 km/h (1 Bft) 98 %
28.06.2016 23:20 16,9 C 16,9 C 17,1 C 90 % 1013,7 hPa 0,0 l/m 3,2 km/h (1 Bft) SO 135 0 min 0,000 mm 0 W/m 15,2 C 16,9 C 8,0 km/h (2 Bft) 97 %
28.06.2016 23:30 16,9 C 16,9 C 16,9 C 90 % 1013,7 hPa 0,0 l/m 0,0 km/h (0 Bft) SO 135 0 min 0,000 mm 0 W/m 15,2 C 16,9 C 6,4 km/h (2 Bft) 97 %
28.06.2016 23:40 16,9 C 16,8 C 16,9 C 90 % 1013,8 hPa 0,2 l/m 0,0 km/h (0 Bft) SO 135 0 min 0,000 mm 0 W/m 15,2 C 16,9 C 4,8 km/h (1 Bft) 97 %
28.06.2016 23:50 16,8 C 16,8 C 16,9 C 90 % 1013,7 hPa 0,0 l/m 0,0 km/h (0 Bft) S-SW 202 0 min 0,000 mm 0 W/m 15,1 C 16,8 C 6,4 km/h (2 Bft) 98 %
_ Min-Zeit 06:50 06:50 04:30 13:20 22:50 - 00:00 - - - - - 06:50 06:50 00:10 08:00
Minimum _ 14,7 C 14,7 C 14,8 C 75 % 1013,5 hPa - 0,0 km/h (0 Bft) - - - - - 13,1 C 14,7 C 0,0 km/h (0 Bft) 87 %
_ Max-Zeit 13:10 13:20 13:10 04:20 00:00 23:10 13:40 - - 08:00 13:00 11:20 13:50 13:10 13:40 00:00
Maximum _ 20,8 C 20,7 C 20,8 C 90 % 1019,3 hPa 0,8 l/m 12,9 km/h
NW (3 Bft)
- - 10 min 0,229 mm 860 W/m 17,1 C 20,8 C 25,7 km/h
W-NW (4 Bft)
100 %
Durchschnitt _ 17,7 C 17,6 C 17,8 C 85 % 1016,7 hPa #1,0 l/m 2,0 km/h (1 Bft) NW - #10:00 h #1,803 mm 242 W/m 15,2 C 17,6 C 6,4 km/h (2 Bft) 99 %
PRIVATE WETTERSTATION BILLIGHEIM-ALLFELD - www.neckar-odenwald-wetter.de - Holger Sonntag